Time;durP1;ratioP1;P1;durP2;ratioP2;P2;SDS_P1;SDS_P2;PMS_P1;PMS_P2;Temp;Humidity;BMP_temperature;BMP_pressure;BME280_temperature;BME280_humidity;BME280_pressure;Samples;Min_cycle;Max_cycle;Signal;HPM_P1;HPM_P2
2020/12/18 00:00:36;;;;;;;;;;;;;;;;;;2055411;28;7089;-63
2020/12/18 00:01:38;;;;;;;;;;;;;;;;;;2055973;28;7113;-64
2020/12/18 00:02:40;;;;;;;;;;;;;;;;;;2055782;28;7010;-65
2020/12/18 00:03:42;;;;;;;;;;;;;;;;;;2055116;28;7010;-65
2020/12/18 00:04:46;;;;;;;;;;;;;;;;;;2054530;28;7005;-65
2020/12/18 00:05:48;;;;;;;;;;;;;;;;;;2055135;28;7030;-66
2020/12/18 00:06:50;;;;;;;;;;;;;;;;;;2055488;28;7092;-64
2020/12/18 00:07:52;;;;;;;;;;;;;;;;;;2055685;28;8055;-65
2020/12/18 00:08:54;;;;;;;;;;;;;;;;;;2054406;28;8001;-65
2020/12/18 00:09:55;;;;;;;;;;;;;;;;;;2055750;28;7042;-65
2020/12/18 00:10:57;;;;;;;;;;;;;;;;;;2055169;28;7070;-66
2020/12/18 00:11:59;;;;;;;;;;;;;;;;;;2054096;28;7025;-64
2020/12/18 00:13:01;;;;;;;;;;;;;;;;;;2055274;28;7010;-65
2020/12/18 00:14:03;;;;;;;;;;;;;;;;;;2055284;28;7046;-65
2020/12/18 00:15:05;;;;;;;;;;;;;;;;;;2055519;28;7138;-64
2020/12/18 00:16:08;;;;;;;;;;;;;;;;;;2055671;28;7093;-65
2020/12/18 00:17:10;;;;;;;;;;;;;;;;;;2055215;28;7046;-65
2020/12/18 00:18:12;;;;;;;;;;;;;;;;;;2055479;28;7050;-65
2020/12/18 00:19:28;;;;;;;;;;;;;;;;;;2055850;28;7006;-65
2020/12/18 00:20:30;;;;;;;;;;;;;;;;;;2055263;28;7009;-65
2020/12/18 00:21:32;;;;;;;;;;;;;;;;;;2060766;28;7010;-67
2020/12/18 00:22:33;;;;;;;;;;;;;;;;;;2062964;28;8100;-65
2020/12/18 00:23:35;;;;;;;;;;;;;;;;;;2057421;28;7120;-66
2020/12/18 00:24:37;;;;;;;;;;;;;;;;;;2055209;28;7062;-66
2020/12/18 00:25:45;;;;;;;;;;;;;;;;;;2055228;28;7005;-64
2020/12/18 00:26:47;;;;;;;;;;;;;;;;;;2053954;28;7345;-62
2020/12/18 00:27:49;;;;;;;;;;;;;;;;;;2055244;28;7093;-67
2020/12/18 00:28:51;;;;;;;;;;;;;;;;;;2055118;28;7100;-64
2020/12/18 00:29:53;;;;;;;;;;;;;;;;;;2055818;28;7054;-63
2020/12/18 00:30:55;;;;;;;;;;;;;;;;;;2055157;28;7046;-65
2020/12/18 00:31:58;;;;;;;;;;;;;;;;;;2055343;28;8061;-64
2020/12/18 00:33:00;;;;;;;;;;;;;;;;;;2055491;28;7046;-65
2020/12/18 00:34:02;;;;;;;;;;;;;;;;;;2056134;28;7096;-67
2020/12/18 00:35:04;;;;;;;;;;;;;;;;;;2063696;28;7092;-66
2020/12/18 00:36:10;;;;;;;;;;;;;;;;;;2054320;28;8124;-65
2020/12/18 00:37:12;;;;;;;;;;;;;;;;;;2055280;28;7146;-63
2020/12/18 00:38:15;;;;;;;;;;;;;;;;;;2055413;28;7714;-65
2020/12/18 00:39:17;;;;;;;;;;;;;;;;;;2055164;28;7026;-65
2020/12/18 00:40:19;;;;;;;;;;;;;;;;;;2054879;28;7124;-66
2020/12/18 00:41:22;;;;;;;;;;;;;;;;;;2055113;28;7006;-67
2020/12/18 00:42:24;;;;;;;;;;;;;;;;;;2055406;28;8097;-64
2020/12/18 00:43:26;;;;;;;;;;;;;;;;;;2055503;28;7092;-66
2020/12/18 00:44:27;;;;;;;;;;;;;;;;;;2054362;28;7046;-65
2020/12/18 00:45:29;;;;;;;;;;;;;;;;;;2055510;28;7009;-63
2020/12/18 00:46:31;;;;;;;;;;;;;;;;;;2060374;28;7147;-64
2020/12/18 00:47:33;;;;;;;;;;;;;;;;;;2062694;28;7089;-66
2020/12/18 00:48:35;;;;;;;;;;;;;;;;;;2063240;28;7366;-63
2020/12/18 00:49:43;;;;;;;;;;;;;;;;;;2063266;28;7013;-65
2020/12/18 00:50:45;;;;;;;;;;;;;;;;;;2055947;28;7014;-65
2020/12/18 00:51:52;;;;;;;;;;;;;;;;;;2055513;28;7439;-65
2020/12/18 00:52:53;;;;;;;;;;;;;;;;;;2055191;28;7113;-66
2020/12/18 00:53:55;;;;;;;;;;;;;;;;;;2054971;28;7385;-66
2020/12/18 00:54:57;;;;;;;;;;;;;;;;;;2055574;28;7006;-64
2020/12/18 00:56:00;;;;;;;;;;;;;;;;;;2062964;28;7113;-67
2020/12/18 00:57:01;;;;;;;;;;;;;;;;;;2063067;28;7108;-65
2020/12/18 00:58:03;;;;;;;;;;;;;;;;;;2063126;28;7010;-64
2020/12/18 00:59:05;;;;;;;;;;;;;;;;;;2062910;28;7006;-64
2020/12/18 01:00:08;;;;;;;;;;;;;;;;;;2062935;28;7010;-64
2020/12/18 01:01:10;;;;;;;;;;;;;;;;;;2062917;28;8036;-64
2020/12/18 01:02:12;;;;;;;;;;;;;;;;;;2063103;28;7097;-64
2020/12/18 01:03:14;;;;;;;;;;;;;;;;;;2063158;28;7105;-65
2020/12/18 01:04:16;;;;;;;;;;;;;;;;;;2062675;28;8040;-64
2020/12/18 01:05:18;;;;;;;;;;;;;;;;;;2063409;28;7014;-65
2020/12/18 01:06:20;;;;;;;;;;;;;;;;;;2063174;28;9196;-65
2020/12/18 01:07:22;;;;;;;;;;;;;;;;;;2062890;28;8050;-65
2020/12/18 01:08:24;;;;;;;;;;;;;;;;;;2062946;28;7129;-64
2020/12/18 01:09:26;;;;;;;;;;;;;;;;;;2063424;28;7222;-65
2020/12/18 01:10:28;;;;;;;;;;;;;;;;;;2062734;28;7046;-63
2020/12/18 01:11:30;;;;;;;;;;;;;;;;;;2052563;28;7010;-64
2020/12/18 01:12:32;;;;;;;;;;;;;;;;;;2054397;28;7519;-64
2020/12/18 01:13:34;;;;;;;;;;;;;;;;;;2054797;28;7141;-66
2020/12/18 01:14:36;;;;;;;;;;;;;;;;;;2055026;28;7093;-65
2020/12/18 01:15:38;;;;;;;;;;;;;;;;;;2054796;28;8048;-66
2020/12/18 01:16:40;;;;;;;;;;;;;;;;;;2054842;28;7085;-64
2020/12/18 01:17:42;;;;;;;;;;;;;;;;;;2054722;28;7026;-64
2020/12/18 01:18:44;;;;;;;;;;;;;;;;;;2055228;28;7117;-62
2020/12/18 01:20:00;;;;;;;;;;;;;;;;;;2055021;28;7010;-65
2020/12/18 01:21:02;;;;;;;;;;;;;;;;;;2055752;28;7289;-65
2020/12/18 01:22:04;;;;;;;;;;;;;;;;;;2063256;28;7049;-67
2020/12/18 01:23:07;;;;;;;;;;;;;;;;;;2063042;28;7249;-64
2020/12/18 01:24:09;;;;;;;;;;;;;;;;;;2063188;28;7100;-64
2020/12/18 01:25:12;;;;;;;;;;;;;;;;;;2062240;28;7110;-64
2020/12/18 01:26:14;;;;;;;;;;;;;;;;;;2062649;28;7117;-64
2020/12/18 01:27:15;;;;;;;;;;;;;;;;;;2062566;28;7100;-66
2020/12/18 01:28:18;;;;;;;;;;;;;;;;;;2062640;28;7013;-65
2020/12/18 01:29:20;;;;;;;;;;;;;;;;;;2063039;28;7013;-64
2020/12/18 01:30:22;;;;;;;;;;;;;;;;;;2055480;28;7109;-66
2020/12/18 01:31:24;;;;;;;;;;;;;;;;;;2055015;28;7109;-64
2020/12/18 01:32:26;;;;;;;;;;;;;;;;;;2054699;28;7054;-65
2020/12/18 01:33:28;;;;;;;;;;;;;;;;;;2054332;28;7167;-63
2020/12/18 01:34:30;;;;;;;;;;;;;;;;;;2054989;28;7046;-66
2020/12/18 01:35:32;;;;;;;;;;;;;;;;;;2054615;28;7048;-64
2020/12/18 01:36:34;;;;;;;;;;;;;;;;;;2055257;28;7318;-64
2020/12/18 01:37:36;;;;;;;;;;;;;;;;;;2054869;28;7117;-65
2020/12/18 01:38:38;;;;;;;;;;;;;;;;;;2054917;28;7014;-64
2020/12/18 01:39:40;;;;;;;;;;;;;;;;;;2054761;28;7079;-66
2020/12/18 01:40:42;;;;;;;;;;;;;;;;;;2055040;28;7317;-64
2020/12/18 01:41:43;;;;;;;;;;;;;;;;;;2055113;28;7113;-63
2020/12/18 01:42:45;;;;;;;;;;;;;;;;;;2055030;28;8069;-65
2020/12/18 01:43:47;;;;;;;;;;;;;;;;;;2054979;28;7089;-66
2020/12/18 01:44:49;;;;;;;;;;;;;;;;;;2054860;28;7017;-68
2020/12/18 01:45:51;;;;;;;;;;;;;;;;;;2054633;28;7010;-63
2020/12/18 01:46:53;;;;;;;;;;;;;;;;;;2054518;28;7101;-64
2020/12/18 01:47:55;;;;;;;;;;;;;;;;;;2054544;28;7009;-65
2020/12/18 01:48:58;;;;;;;;;;;;;;;;;;2054574;28;7337;-64
2020/12/18 01:50:17;;;;;;;;;;;;;;;;;;2054941;28;7046;-65
2020/12/18 01:51:20;;;;;;;;;;;;;;;;;;2055284;28;7009;-66
2020/12/18 01:52:23;;;;;;;;;;;;;;;;;;2054733;28;7104;-65
2020/12/18 01:53:27;;;;;;;;;;;;;;;;;;2054858;28;7014;-66
2020/12/18 01:54:29;;;;;;;;;;;;;;;;;;2055726;28;7010;-66
2020/12/18 01:55:31;;;;;;;;;;;;;;;;;;2055071;28;7364;-64
2020/12/18 01:56:35;;;;;;;;;;;;;;;;;;2054903;28;7127;-65
2020/12/18 01:57:38;;;;;;;;;;;;;;;;;;2055002;28;7092;-64
2020/12/18 01:58:42;;;;;;;;;;;;;;;;;;2054557;28;7113;-65
2020/12/18 01:59:44;;;;;;;;;;;;;;;;;;2054424;28;7096;-64
2020/12/18 02:00:47;;;;;;;;;;;;;;;;;;2054594;28;7042;-64
2020/12/18 02:01:49;;;;;;;;;;;;;;;;;;2054891;28;7045;-65
2020/12/18 02:02:53;;;;;;;;;;;;;;;;;;2055063;28;7109;-65
2020/12/18 02:03:55;;;;;;;;;;;;;;;;;;2054903;28;7046;-65
2020/12/18 02:04:57;;;;;;;;;;;;;;;;;;2062782;28;7293;-66
2020/12/18 02:06:03;;;;;;;;;;;;;;;;;;2063187;28;7341;-63
2020/12/18 02:07:07;;;;;;;;;;;;;;;;;;2053890;28;7089;-63
2020/12/18 02:08:10;;;;;;;;;;;;;;;;;;2054610;28;7025;-65
2020/12/18 02:09:12;;;;;;;;;;;;;;;;;;2054348;28;7009;-65
2020/12/18 02:10:14;;;;;;;;;;;;;;;;;;2054720;28;7109;-64
2020/12/18 02:11:23;;;;;;;;;;;;;;;;;;2052997;28;7046;-64
2020/12/18 02:12:25;;;;;;;;;;;;;;;;;;2054796;28;7021;-64
2020/12/18 02:13:28;;;;;;;;;;;;;;;;;;2054862;28;7963;-64
2020/12/18 02:14:30;;;;;;;;;;;;;;;;;;2060096;28;7092;-66
2020/12/18 02:15:32;;;;;;;;;;;;;;;;;;2062560;28;7093;-65
2020/12/18 02:16:35;;;;;;;;;;;;;;;;;;2062841;28;7026;-64
2020/12/18 02:17:37;;;;;;;;;;;;;;;;;;2062486;28;7010;-67
2020/12/18 02:18:39;;;;;;;;;;;;;;;;;;2062509;28;7009;-67
2020/12/18 02:19:43;;;;;;;;;;;;;;;;;;2062523;28;7097;-64
2020/12/18 02:20:45;;;;;;;;;;;;;;;;;;2062729;28;7013;-66
2020/12/18 02:21:47;;;;;;;;;;;;;;;;;;2055109;28;7010;-65
2020/12/18 02:22:49;;;;;;;;;;;;;;;;;;2054679;28;7097;-67
2020/12/18 02:23:51;;;;;;;;;;;;;;;;;;2054452;28;7050;-62
2020/12/18 02:24:56;;;;;;;;;;;;;;;;;;2056912;28;7109;-64
2020/12/18 02:26:08;;;;;;;;;;;;;;;;;;2063892;28;7392;-65
2020/12/18 02:27:10;;;;;;;;;;;;;;;;;;2055456;28;8060;-64
2020/12/18 02:28:12;;;;;;;;;;;;;;;;;;2055768;28;7163;-64
2020/12/18 02:29:14;;;;;;;;;;;;;;;;;;2056292;28;7054;-66
2020/12/18 02:30:17;;;;;;;;;;;;;;;;;;2056202;28;8055;-64
2020/12/18 02:31:20;;;;;;;;;;;;;;;;;;2056924;28;7006;-63
2020/12/18 02:32:22;;;;;;;;;;;;;;;;;;2057212;28;7088;-64
2020/12/18 02:33:24;;;;;;;;;;;;;;;;;;2055225;28;8096;-65
2020/12/18 02:34:26;;;;;;;;;;;;;;;;;;2056034;28;7117;-68
2020/12/18 02:35:28;;;;;;;;;;;;;;;;;;2061289;28;7088;-66
2020/12/18 02:36:30;;;;;;;;;;;;;;;;;;2064468;28;7009;-63
2020/12/18 02:37:32;;;;;;;;;;;;;;;;;;2064191;28;7133;-62
2020/12/18 02:38:35;;;;;;;;;;;;;;;;;;2064241;28;7009;-65
2020/12/18 02:39:38;;;;;;;;;;;;;;;;;;2064072;28;7042;-64
2020/12/18 02:40:40;;;;;;;;;;;;;;;;;;2063982;28;7293;-66
2020/12/18 02:41:41;;;;;;;;;;;;;;;;;;2064401;28;7088;-65
2020/12/18 02:42:43;;;;;;;;;;;;;;;;;;2064049;28;7037;-65
2020/12/18 02:43:45;;;;;;;;;;;;;;;;;;2064248;28;7092;-63
2020/12/18 02:44:48;;;;;;;;;;;;;;;;;;2064212;28;7045;-67
2020/12/18 02:45:50;;;;;;;;;;;;;;;;;;2055746;28;7380;-66
2020/12/18 02:46:52;;;;;;;;;;;;;;;;;;2056850;28;7022;-64
2020/12/18 02:47:54;;;;;;;;;;;;;;;;;;2056556;28;7010;-65
2020/12/18 02:48:55;;;;;;;;;;;;;;;;;;2056108;28;7018;-67
2020/12/18 02:49:57;;;;;;;;;;;;;;;;;;2056237;28;8554;-65
2020/12/18 02:50:59;;;;;;;;;;;;;;;;;;2056131;28;7114;-63
2020/12/18 02:52:03;;;;;;;;;;;;;;;;;;2056012;28;7088;-64
2020/12/18 02:53:24;;;;;;;;;;;;;;;;;;2056137;28;7134;-64
2020/12/18 02:54:25;;;;;;;;;;;;;;;;;;2056043;28;7113;-66
2020/12/18 02:55:27;;;;;;;;;;;;;;;;;;2055987;28;7066;-65
2020/12/18 02:56:29;;;;;;;;;;;;;;;;;;2056137;28;7009;-66
2020/12/18 02:57:31;;;;;;;;;;;;;;;;;;2055312;28;7085;-64
2020/12/18 02:58:34;;;;;;;;;;;;;;;;;;2056425;28;7112;-66
2020/12/18 02:59:36;;;;;;;;;;;;;;;;;;2056360;28;7009;-64
2020/12/18 03:00:39;;;;;;;;;;;;;;;;;;2055925;28;7010;-66
2020/12/18 03:01:41;;;;;;;;;;;;;;;;;;2056145;28;7010;-65
2020/12/18 03:02:43;;;;;;;;;;;;;;;;;;2055874;28;7085;-65
2020/12/18 03:03:45;;;;;;;;;;;;;;;;;;2055962;28;7009;-65
2020/12/18 03:04:47;;;;;;;;;;;;;;;;;;2056761;28;7006;-63
2020/12/18 03:05:49;;;;;;;;;;;;;;;;;;2056210;28;7010;-64
2020/12/18 03:06:51;;;;;;;;;;;;;;;;;;2055969;28;7010;-63
2020/12/18 03:07:53;;;;;;;;;;;;;;;;;;2056510;28;7037;-66
2020/12/18 03:08:54;;;;;;;;;;;;;;;;;;2056101;28;7010;-65
2020/12/18 03:09:56;;;;;;;;;;;;;;;;;;2056486;28;8020;-64
2020/12/18 03:10:58;;;;;;;;;;;;;;;;;;2056388;28;7009;-66
2020/12/18 03:12:01;;;;;;;;;;;;;;;;;;2055082;28;7732;-66
2020/12/18 03:13:03;;;;;;;;;;;;;;;;;;2056396;28;7389;-63
2020/12/18 03:14:06;;;;;;;;;;;;;;;;;;2060895;28;7385;-65
2020/12/18 03:15:08;;;;;;;;;;;;;;;;;;2064214;28;7017;-65
2020/12/18 03:16:11;;;;;;;;;;;;;;;;;;2063700;28;7013;-64
2020/12/18 03:17:13;;;;;;;;;;;;;;;;;;2063890;28;7093;-65
2020/12/18 03:18:15;;;;;;;;;;;;;;;;;;2063808;28;8106;-63
2020/12/18 03:19:18;;;;;;;;;;;;;;;;;;2064566;28;8063;-64
2020/12/18 03:20:20;;;;;;;;;;;;;;;;;;2063785;28;7096;-64
2020/12/18 03:21:22;;;;;;;;;;;;;;;;;;2060039;28;7099;-66
2020/12/18 03:22:24;;;;;;;;;;;;;;;;;;2055685;28;7297;-64
2020/12/18 03:23:26;;;;;;;;;;;;;;;;;;2056070;28;7014;-64
2020/12/18 03:24:28;;;;;;;;;;;;;;;;;;2056124;28;7009;-65
2020/12/18 03:25:30;;;;;;;;;;;;;;;;;;2055422;28;7010;-64
2020/12/18 03:26:31;;;;;;;;;;;;;;;;;;2055974;28;7144;-66
2020/12/18 03:27:33;;;;;;;;;;;;;;;;;;2063932;28;6997;-64
2020/12/18 03:28:35;;;;;;;;;;;;;;;;;;2063338;28;7092;-64
2020/12/18 03:29:37;;;;;;;;;;;;;;;;;;2063629;28;8029;-65
2020/12/18 03:30:39;;;;;;;;;;;;;;;;;;2056763;28;7096;-65
2020/12/18 03:31:41;;;;;;;;;;;;;;;;;;2055565;28;8120;-65
2020/12/18 03:32:43;;;;;;;;;;;;;;;;;;2055523;28;7050;-65
2020/12/18 03:33:45;;;;;;;;;;;;;;;;;;2056123;28;7153;-66
2020/12/18 03:34:47;;;;;;;;;;;;;;;;;;2054889;28;7092;-65
2020/12/18 03:35:49;;;;;;;;;;;;;;;;;;2055448;28;7097;-65
2020/12/18 03:36:51;;;;;;;;;;;;;;;;;;2055055;28;7013;-66
2020/12/18 03:37:53;;;;;;;;;;;;;;;;;;2055443;28;7046;-64
2020/12/18 03:38:55;;;;;;;;;;;;;;;;;;2058882;28;7329;-64
2020/12/18 03:39:57;;;;;;;;;;;;;;;;;;2063299;28;7084;-65
2020/12/18 03:40:58;;;;;;;;;;;;;;;;;;2063239;28;7101;-65
2020/12/18 03:42:01;;;;;;;;;;;;;;;;;;2056200;28;7050;-64
2020/12/18 03:43:03;;;;;;;;;;;;;;;;;;2055282;28;7766;-66
2020/12/18 03:44:05;;;;;;;;;;;;;;;;;;2055266;28;7010;-65
2020/12/18 03:45:07;;;;;;;;;;;;;;;;;;2055664;28;7017;-64
2020/12/18 03:46:14;;;;;;;;;;;;;;;;;;2055382;28;7113;-64
2020/12/18 03:47:16;;;;;;;;;;;;;;;;;;2055441;28;7018;-64
2020/12/18 03:48:19;;;;;;;;;;;;;;;;;;2056135;28;8118;-63
2020/12/18 03:49:22;;;;;;;;;;;;;;;;;;2055487;28;8037;-65
2020/12/18 03:50:24;;;;;;;;;;;;;;;;;;2055190;28;7009;-63
2020/12/18 03:51:37;;;;;;;;;;;;;;;;;;2055521;28;7097;-66
2020/12/18 03:52:39;;;;;;;;;;;;;;;;;;2055253;28;7093;-64
2020/12/18 03:53:41;;;;;;;;;;;;;;;;;;2055466;28;7134;-63
2020/12/18 03:54:43;;;;;;;;;;;;;;;;;;2055593;28;7010;-63
2020/12/18 03:55:45;;;;;;;;;;;;;;;;;;2055193;28;8040;-63
2020/12/18 03:56:47;;;;;;;;;;;;;;;;;;2055430;28;7088;-64
2020/12/18 03:57:49;;;;;;;;;;;;;;;;;;2054899;28;7014;-65
2020/12/18 03:58:50;;;;;;;;;;;;;;;;;;2055426;28;7010;-65
2020/12/18 03:59:52;;;;;;;;;;;;;;;;;;2055248;28;7030;-67
2020/12/18 04:00:54;;;;;;;;;;;;;;;;;;2055259;28;7109;-64
2020/12/18 04:01:56;;;;;;;;;;;;;;;;;;2055114;28;7109;-65
2020/12/18 04:02:58;;;;;;;;;;;;;;;;;;2055499;28;7097;-63
2020/12/18 04:04:00;;;;;;;;;;;;;;;;;;2054395;28;7093;-63
2020/12/18 04:05:02;;;;;;;;;;;;;;;;;;2054627;28;7014;-67
2020/12/18 04:06:04;;;;;;;;;;;;;;;;;;2053810;28;9381;-65
2020/12/18 04:07:07;;;;;;;;;;;;;;;;;;2055708;28;7010;-67
2020/12/18 04:08:09;;;;;;;;;;;;;;;;;;2055447;28;7010;-64
2020/12/18 04:09:11;;;;;;;;;;;;;;;;;;2055178;28;8164;-65
2020/12/18 04:10:12;;;;;;;;;;;;;;;;;;2055037;28;7014;-65
2020/12/18 04:11:14;;;;;;;;;;;;;;;;;;2053781;28;7120;-64
2020/12/18 04:12:16;;;;;;;;;;;;;;;;;;2055051;28;7142;-65
2020/12/18 04:13:19;;;;;;;;;;;;;;;;;;2055004;28;7037;-64
2020/12/18 04:14:21;;;;;;;;;;;;;;;;;;2054925;28;7092;-64
2020/12/18 04:15:23;;;;;;;;;;;;;;;;;;2055652;28;7049;-66
2020/12/18 04:16:25;;;;;;;;;;;;;;;;;;2055465;28;7117;-65
2020/12/18 04:17:27;;;;;;;;;;;;;;;;;;2055244;28;7092;-65
2020/12/18 04:18:29;;;;;;;;;;;;;;;;;;2055590;28;8505;-66
2020/12/18 04:19:31;;;;;;;;;;;;;;;;;;2055257;28;7418;-65
2020/12/18 04:20:33;;;;;;;;;;;;;;;;;;2055085;28;7093;-65
2020/12/18 04:21:52;;;;;;;;;;;;;;;;;;2063363;28;7109;-66
2020/12/18 04:22:54;;;;;;;;;;;;;;;;;;2063579;28;7092;-67
2020/12/18 04:23:56;;;;;;;;;;;;;;;;;;2063600;28;7006;-64
2020/12/18 04:24:58;;;;;;;;;;;;;;;;;;2053956;28;7014;-65
2020/12/18 04:26:00;;;;;;;;;;;;;;;;;;2055055;28;7113;-66
2020/12/18 04:27:02;;;;;;;;;;;;;;;;;;2054587;28;7010;-64
2020/12/18 04:28:04;;;;;;;;;;;;;;;;;;2055159;28;7529;-66
2020/12/18 04:29:06;;;;;;;;;;;;;;;;;;2054770;28;7425;-65
2020/12/18 04:30:08;;;;;;;;;;;;;;;;;;2032714;28;639938;-64
2020/12/18 04:31:10;;;;;;;;;;;;;;;;;;2055763;28;7062;-65
2020/12/18 04:32:12;;;;;;;;;;;;;;;;;;2055617;28;9014;-64
2020/12/18 04:33:14;;;;;;;;;;;;;;;;;;2055547;28;7097;-65
2020/12/18 04:34:16;;;;;;;;;;;;;;;;;;2055926;28;7013;-64
2020/12/18 04:35:18;;;;;;;;;;;;;;;;;;2055948;28;7009;-64
2020/12/18 04:36:20;;;;;;;;;;;;;;;;;;2056610;28;7148;-64
2020/12/18 04:37:22;;;;;;;;;;;;;;;;;;2055272;28;7121;-64
2020/12/18 04:38:24;;;;;;;;;;;;;;;;;;2055224;28;7017;-64
2020/12/18 04:39:26;;;;;;;;;;;;;;;;;;2055196;28;7046;-67
2020/12/18 04:40:28;;;;;;;;;;;;;;;;;;2055446;28;7026;-66
2020/12/18 04:41:32;;;;;;;;;;;;;;;;;;2055443;28;7013;-65
2020/12/18 04:42:34;;;;;;;;;;;;;;;;;;2055332;28;7006;-63
2020/12/18 04:43:37;;;;;;;;;;;;;;;;;;2055377;28;7466;-64
2020/12/18 04:44:39;;;;;;;;;;;;;;;;;;2055337;28;7329;-64
2020/12/18 04:45:42;;;;;;;;;;;;;;;;;;2055670;28;7133;-66
2020/12/18 04:46:45;;;;;;;;;;;;;;;;;;2055695;28;7009;-63
2020/12/18 04:47:48;;;;;;;;;;;;;;;;;;2054442;28;7093;-66
2020/12/18 04:48:50;;;;;;;;;;;;;;;;;;2054815;28;7050;-65
2020/12/18 04:49:54;;;;;;;;;;;;;;;;;;2054549;28;7010;-64
2020/12/18 04:50:57;;;;;;;;;;;;;;;;;;2055106;28;7180;-66
2020/12/18 04:52:13;;;;;;;;;;;;;;;;;;2055487;28;8024;-64
2020/12/18 04:53:24;;;;;;;;;;;;;;;;;;2055154;28;7046;-64
2020/12/18 04:54:26;;;;;;;;;;;;;;;;;;2055480;28;7341;-64
2020/12/18 04:55:29;;;;;;;;;;;;;;;;;;2054939;28;7018;-64
2020/12/18 04:56:34;;;;;;;;;;;;;;;;;;2055728;28;7101;-64
2020/12/18 04:57:37;;;;;;;;;;;;;;;;;;2055727;28;7092;-62
2020/12/18 04:58:40;;;;;;;;;;;;;;;;;;2056099;28;7100;-64
2020/12/18 04:59:43;;;;;;;;;;;;;;;;;;2055406;28;7117;-64
2020/12/18 05:00:45;;;;;;;;;;;;;;;;;;2055453;28;7029;-64
2020/12/18 05:01:47;;;;;;;;;;;;;;;;;;2063060;28;7018;-64
2020/12/18 05:02:50;;;;;;;;;;;;;;;;;;2063628;28;7038;-65
2020/12/18 05:03:52;;;;;;;;;;;;;;;;;;2055437;28;7030;-64
2020/12/18 05:04:56;;;;;;;;;;;;;;;;;;2055249;28;7117;-64
2020/12/18 05:05:59;;;;;;;;;;;;;;;;;;2055390;28;7005;-67
2020/12/18 05:07:01;;;;;;;;;;;;;;;;;;2055549;28;7026;-66
2020/12/18 05:08:03;;;;;;;;;;;;;;;;;;2055591;28;7010;-65
2020/12/18 05:09:05;;;;;;;;;;;;;;;;;;2055563;28;7153;-64
2020/12/18 05:10:08;;;;;;;;;;;;;;;;;;2063453;28;7084;-64
2020/12/18 05:11:19;;;;;;;;;;;;;;;;;;2061582;28;7041;-64
2020/12/18 05:12:21;;;;;;;;;;;;;;;;;;2055432;28;7018;-63
2020/12/18 05:13:23;;;;;;;;;;;;;;;;;;2063049;28;7010;-64
2020/12/18 05:14:28;;;;;;;;;;;;;;;;;;2063180;28;7045;-64
2020/12/18 05:15:32;;;;;;;;;;;;;;;;;;2063093;28;7013;-64
2020/12/18 05:16:34;;;;;;;;;;;;;;;;;;2063441;28;7033;-63
2020/12/18 05:17:36;;;;;;;;;;;;;;;;;;2063485;28;7014;-64
2020/12/18 05:18:39;;;;;;;;;;;;;;;;;;2062660;28;7041;-65
2020/12/18 05:19:42;;;;;;;;;;;;;;;;;;2062847;28;7092;-65
2020/12/18 05:20:44;;;;;;;;;;;;;;;;;;2062986;28;7013;-65
2020/12/18 05:21:49;;;;;;;;;;;;;;;;;;2056044;28;7050;-66
2020/12/18 05:22:52;;;;;;;;;;;;;;;;;;2054759;28;7134;-65
2020/12/18 05:23:54;;;;;;;;;;;;;;;;;;2055510;28;8075;-66
2020/12/18 05:24:56;;;;;;;;;;;;;;;;;;2054835;28;7104;-65
2020/12/18 05:25:58;;;;;;;;;;;;;;;;;;2055562;28;7033;-65
2020/12/18 05:27:00;;;;;;;;;;;;;;;;;;2055357;28;7009;-65
2020/12/18 05:28:03;;;;;;;;;;;;;;;;;;2055443;28;7005;-64
2020/12/18 05:29:07;;;;;;;;;;;;;;;;;;2055111;28;7089;-66
2020/12/18 05:30:10;;;;;;;;;;;;;;;;;;2054515;28;7093;-64
2020/12/18 05:31:13;;;;;;;;;;;;;;;;;;2055003;28;7010;-65
2020/12/18 05:32:15;;;;;;;;;;;;;;;;;;2055333;28;7097;-64
2020/12/18 05:33:18;;;;;;;;;;;;;;;;;;2055408;28;7289;-66
2020/12/18 05:34:21;;;;;;;;;;;;;;;;;;2055229;28;7113;-65
2020/12/18 05:35:23;;;;;;;;;;;;;;;;;;2054888;28;8095;-66
2020/12/18 05:36:25;;;;;;;;;;;;;;;;;;2055035;28;7010;-64
2020/12/18 05:37:38;;;;;;;;;;;;;;;;;;2055210;28;7010;-65
2020/12/18 05:38:41;;;;;;;;;;;;;;;;;;2054231;28;7151;-65
2020/12/18 05:39:43;;;;;;;;;;;;;;;;;;2053781;28;7097;-66
2020/12/18 05:40:46;;;;;;;;;;;;;;;;;;2055255;28;7201;-65
2020/12/18 05:41:56;;;;;;;;;;;;;;;;;;2053712;28;8060;-66
2020/12/18 05:43:04;;;;;;;;;;;;;;;;;;2054679;28;7088;-64
2020/12/18 05:44:06;;;;;;;;;;;;;;;;;;2054874;28;7050;-66
2020/12/18 05:45:18;;;;;;;;;;;;;;;;;;2054062;28;7014;-63
2020/12/18 05:46:20;;;;;;;;;;;;;;;;;;2054677;28;7010;-66
2020/12/18 05:47:22;;;;;;;;;;;;;;;;;;2054541;28;7131;-65
2020/12/18 05:48:26;;;;;;;;;;;;;;;;;;2055042;28;7009;-65
2020/12/18 05:49:29;;;;;;;;;;;;;;;;;;2055038;28;7038;-66
2020/12/18 05:50:33;;;;;;;;;;;;;;;;;;2054742;28;7013;-66
2020/12/18 05:51:37;;;;;;;;;;;;;;;;;;2055067;28;7042;-65
2020/12/18 05:52:58;;;;;;;;;;;;;;;;;;2055008;28;7050;-67
2020/12/18 05:54:13;;;;;;;;;;;;;;;;;;2055032;28;7927;-67
2020/12/18 05:55:16;;;;;;;;;;;;;;;;;;2055270;28;8044;-65
2020/12/18 05:56:31;;;;;;;;;;;;;;;;;;2054553;28;7998;-64
2020/12/18 05:57:34;;;;;;;;;;;;;;;;;;2055066;28;7130;-64
2020/12/18 05:58:39;;;;;;;;;;;;;;;;;;2054989;28;7046;-64
2020/12/18 05:59:45;;;;;;;;;;;;;;;;;;2054913;28;7010;-66
2020/12/18 06:00:47;;;;;;;;;;;;;;;;;;2054665;28;7341;-64
2020/12/18 06:01:50;;;;;;;;;;;;;;;;;;2054713;28;7042;-63
2020/12/18 06:03:01;;;;;;;;;;;;;;;;;;2054299;28;7042;-67
2020/12/18 06:04:08;;;;;;;;;;;;;;;;;;2054937;28;7006;-64
2020/12/18 06:05:10;;;;;;;;;;;;;;;;;;2054807;28;7101;-64
2020/12/18 06:06:15;;;;;;;;;;;;;;;;;;2054916;28;7062;-64
2020/12/18 06:07:17;;;;;;;;;;;;;;;;;;2054289;28;7542;-65
2020/12/18 06:08:20;;;;;;;;;;;;;;;;;;2055155;28;8048;-65
2020/12/18 06:09:23;;;;;;;;;;;;;;;;;;2054529;28;7135;-67
2020/12/18 06:10:25;;;;;;;;;;;;;;;;;;2054792;28;7009;-63
2020/12/18 06:11:30;;;;;;;;;;;;;;;;;;2053384;28;8072;-67
2020/12/18 06:12:33;;;;;;;;;;;;;;;;;;2055080;28;7305;-67
2020/12/18 06:13:36;;;;;;;;;;;;;;;;;;2054580;28;7026;-65
2020/12/18 06:14:40;;;;;;;;;;;;;;;;;;2055422;28;7009;-66
2020/12/18 06:15:43;;;;;;;;;;;;;;;;;;2055742;28;7218;-66
2020/12/18 06:16:47;;;;;;;;;;;;;;;;;;2054062;28;7290;-64
2020/12/18 06:17:50;;;;;;;;;;;;;;;;;;2055039;28;7128;-64
2020/12/18 06:18:54;;;;;;;;;;;;;;;;;;2054801;28;8040;-65
2020/12/18 06:19:57;;;;;;;;;;;;;;;;;;2054567;28;7042;-65
2020/12/18 06:21:05;;;;;;;;;;;;;;;;;;2055198;28;7085;-67
2020/12/18 06:22:10;;;;;;;;;;;;;;;;;;2058874;28;7009;-63
2020/12/18 06:23:15;;;;;;;;;;;;;;;;;;2054947;28;7009;-65
2020/12/18 06:24:17;;;;;;;;;;;;;;;;;;2053847;28;7285;-67
2020/12/18 06:25:19;;;;;;;;;;;;;;;;;;2054578;28;7050;-64
2020/12/18 06:26:22;;;;;;;;;;;;;;;;;;2053821;28;7374;-63
2020/12/18 06:27:24;;;;;;;;;;;;;;;;;;2055004;28;7039;-64
2020/12/18 06:28:26;;;;;;;;;;;;;;;;;;2055326;28;7081;-65
2020/12/18 06:29:28;;;;;;;;;;;;;;;;;;2059510;28;7564;-65
2020/12/18 06:30:30;;;;;;;;;;;;;;;;;;2062435;28;8116;-64
2020/12/18 06:31:34;;;;;;;;;;;;;;;;;;2062585;28;7010;-65
2020/12/18 06:32:44;;;;;;;;;;;;;;;;;;2062371;28;7109;-65
2020/12/18 06:33:53;;;;;;;;;;;;;;;;;;2054002;28;7106;-63
2020/12/18 06:35:15;;;;;;;;;;;;;;;;;;2054954;28;7124;-63
2020/12/18 06:36:18;;;;;;;;;;;;;;;;;;2053036;28;8044;-64
2020/12/18 06:37:33;;;;;;;;;;;;;;;;;;2054328;28;7006;-66
2020/12/18 06:38:37;;;;;;;;;;;;;;;;;;2055206;28;7014;-64
2020/12/18 06:39:39;;;;;;;;;;;;;;;;;;2054575;28;7317;-65
2020/12/18 06:40:42;;;;;;;;;;;;;;;;;;2054486;28;7097;-66
2020/12/18 06:41:44;;;;;;;;;;;;;;;;;;2054555;28;7051;-66
2020/12/18 06:42:46;;;;;;;;;;;;;;;;;;2053874;28;7029;-65
2020/12/18 06:43:48;;;;;;;;;;;;;;;;;;2054184;28;7101;-63
2020/12/18 06:44:54;;;;;;;;;;;;;;;;;;2054277;28;7140;-65
2020/12/18 06:46:03;;;;;;;;;;;;;;;;;;2054769;28;7097;-64
2020/12/18 06:47:19;;;;;;;;;;;;;;;;;;2053115;28;7135;-64
2020/12/18 06:48:26;;;;;;;;;;;;;;;;;;2054848;28;7133;-65
2020/12/18 06:49:47;;;;;;;;;;;;;;;;;;2054708;28;7027;-66
2020/12/18 06:50:49;;;;;;;;;;;;;;;;;;2054102;28;7089;-64
2020/12/18 06:51:51;;;;;;;;;;;;;;;;;;2054934;28;7097;-66
2020/12/18 06:53:04;;;;;;;;;;;;;;;;;;2054853;28;8057;-65
2020/12/18 06:54:07;;;;;;;;;;;;;;;;;;2062954;28;8060;-64
2020/12/18 06:55:13;;;;;;;;;;;;;;;;;;2061948;28;8154;-64
2020/12/18 06:56:26;;;;;;;;;;;;;;;;;;2062448;28;7301;-64
2020/12/18 06:57:28;;;;;;;;;;;;;;;;;;2053532;28;7138;-65
2020/12/18 06:58:33;;;;;;;;;;;;;;;;;;2054723;28;7306;-65
2020/12/18 06:59:35;;;;;;;;;;;;;;;;;;2054227;28;8006;-65
2020/12/18 07:01:07;;;;;;;;;;;;;;;;;;2054401;28;7341;-64
2020/12/18 07:02:34;;;;;;;;;;;;;;;;;;2051561;28;7030;-66
2020/12/18 07:03:36;;;;;;;;;;;;;;;;;;2054672;28;7017;-66
2020/12/18 07:04:39;;;;;;;;;;;;;;;;;;2054288;28;7121;-67
2020/12/18 07:05:42;;;;;;;;;;;;;;;;;;2054591;28;7017;-66
2020/12/18 07:06:44;;;;;;;;;;;;;;;;;;2062237;28;7093;-65
2020/12/18 07:07:47;;;;;;;;;;;;;;;;;;2062199;28;7529;-64
2020/12/18 07:08:50;;;;;;;;;;;;;;;;;;2062190;28;7013;-64
2020/12/18 07:09:52;;;;;;;;;;;;;;;;;;2062266;28;8078;-64
2020/12/18 07:10:59;;;;;;;;;;;;;;;;;;2063215;28;7117;-64
2020/12/18 07:12:03;;;;;;;;;;;;;;;;;;2058415;28;7159;-63
2020/12/18 07:13:06;;;;;;;;;;;;;;;;;;2063534;28;7311;-63
2020/12/18 07:14:15;;;;;;;;;;;;;;;;;;2063709;28;7118;-66
2020/12/18 07:15:17;;;;;;;;;;;;;;;;;;2060467;28;7010;-64
2020/12/18 07:16:21;;;;;;;;;;;;;;;;;;2055999;28;7037;-64
2020/12/18 07:17:26;;;;;;;;;;;;;;;;;;2055786;28;7319;-66
2020/12/18 07:18:29;;;;;;;;;;;;;;;;;;2055942;28;8011;-65
2020/12/18 07:19:31;;;;;;;;;;;;;;;;;;2056003;28;9081;-65
2020/12/18 07:20:33;;;;;;;;;;;;;;;;;;2055921;28;7096;-64